createdAt,value
2023-03-19T00:02:16.583Z,33.20
2023-03-19T00:04:44.155Z,29.57
2023-03-19T00:07:13.005Z,33.90
2023-03-19T00:09:42.167Z,33.10
2023-03-19T00:12:12.522Z,31.20
2023-03-19T00:14:43.934Z,30.80
2023-03-19T00:17:12.206Z,31.40
2023-03-19T00:19:38.941Z,32.00
2023-03-19T00:22:05.857Z,30.87
2023-03-19T00:24:33.991Z,25.33
2023-03-19T00:27:00.722Z,32.10
2023-03-19T00:29:27.413Z,36.00
2023-03-19T00:31:54.183Z,27.07
2023-03-19T00:34:20.941Z,26.73
2023-03-19T00:36:47.760Z,23.37
2023-03-19T00:39:14.694Z,23.17
2023-03-19T00:41:42.799Z,20.60
2023-03-19T00:44:09.470Z,22.37
2023-03-19T00:46:36.396Z,24.10
2023-03-19T00:49:03.127Z,22.07
2023-03-19T00:51:29.915Z,21.07
2023-03-19T00:53:56.656Z,21.87
2023-03-19T00:56:23.309Z,21.30
2023-03-19T00:58:53.792Z,21.50
2023-03-19T01:01:20.733Z,22.90
2023-03-19T01:03:47.477Z,22.10
2023-03-19T01:06:14.600Z,24.80
2023-03-19T01:08:43.806Z,23.13
2023-03-19T01:11:13.585Z,22.00
2023-03-19T01:13:40.661Z,21.73
2023-03-19T01:16:09.748Z,21.93
2023-03-19T01:18:36.676Z,21.90
2023-03-19T01:21:03.583Z,21.90
2023-03-19T01:23:31.568Z,21.10
2023-03-19T01:25:58.325Z,20.87
2023-03-19T01:28:25.224Z,20.83
2023-03-19T01:30:52.261Z,23.90
2023-03-19T01:33:20.373Z,23.37
2023-03-19T01:35:52.726Z,24.60
2023-03-19T01:38:19.636Z,20.90
2023-03-19T01:40:49.370Z,21.90
2023-03-19T01:43:18.479Z,21.00
2023-03-19T01:45:47.403Z,21.83
2023-03-19T01:48:25.395Z,20.93
2023-03-19T01:50:53.821Z,20.47
2023-03-19T01:53:24.671Z,21.03
2023-03-19T01:55:52.553Z,20.73
2023-03-19T01:58:19.935Z,20.30
2023-03-19T02:00:46.925Z,20.07
2023-03-19T02:03:14.075Z,20.80
2023-03-19T02:05:44.985Z,19.10
2023-03-19T02:08:14.630Z,19.83
2023-03-19T02:10:43.232Z,19.20
2023-03-19T02:13:16.414Z,19.20
2023-03-19T02:15:43.396Z,17.73
2023-03-19T02:18:10.611Z,17.07
2023-03-19T02:20:49.869Z,17.57
2023-03-19T02:23:26.295Z,16.40
2023-03-19T02:26:06.174Z,15.33
2023-03-19T02:28:37.620Z,15.83
2023-03-19T02:31:04.586Z,16.00
2023-03-19T02:33:31.414Z,16.17
2023-03-19T02:35:58.665Z,16.07
2023-03-19T02:38:26.822Z,15.00
2023-03-19T02:40:58.626Z,15.20
2023-03-19T02:43:26.969Z,15.80
2023-03-19T02:45:54.486Z,16.43
2023-03-19T02:48:21.283Z,16.53
2023-03-19T02:50:48.066Z,18.40
2023-03-19T02:53:14.905Z,16.47
2023-03-19T02:55:41.805Z,17.30
2023-03-19T02:58:08.813Z,17.63
2023-03-19T03:00:37.039Z,17.97
2023-03-19T03:03:06.336Z,17.67
2023-03-19T03:05:36.391Z,16.20
2023-03-19T03:08:03.605Z,16.40
2023-03-19T03:10:31.086Z,18.03
2023-03-19T03:12:58.729Z,17.07
2023-03-19T03:15:25.721Z,15.50
2023-03-19T03:17:53.900Z,16.47
2023-03-19T03:20:20.826Z,18.23
2023-03-19T03:22:47.541Z,17.73
2023-03-19T03:25:14.632Z,17.90
2023-03-19T03:27:41.408Z,19.10
2023-03-19T03:30:10.563Z,14.13
2023-03-19T03:32:38.249Z,14.70
2023-03-19T03:35:07.911Z,17.60
2023-03-19T03:37:34.906Z,16.37
2023-03-19T03:40:01.666Z,17.00
2023-03-19T03:42:28.363Z,17.70
2023-03-19T03:44:55.074Z,18.70
2023-03-19T03:47:21.792Z,17.00
2023-03-19T03:49:48.550Z,18.73
2023-03-19T03:52:16.556Z,17.87
2023-03-19T03:54:43.279Z,18.67
2023-03-19T03:57:10.272Z,18.67
2023-03-19T03:59:36.963Z,17.53
2023-03-19T04:02:03.646Z,16.33
2023-03-19T04:04:31.052Z,16.67
2023-03-19T04:06:57.758Z,15.50
2023-03-19T04:09:25.822Z,18.40
2023-03-19T04:11:52.511Z,16.40
2023-03-19T04:14:19.446Z,16.20
2023-03-19T04:16:46.275Z,17.73
2023-03-19T04:19:13.150Z,18.10
2023-03-19T04:21:41.193Z,14.97
2023-03-19T04:24:08.264Z,14.67
2023-03-19T04:26:36.432Z,16.53
2023-03-19T04:29:03.409Z,18.27
2023-03-19T04:31:30.266Z,17.57
2023-03-19T04:33:57.121Z,15.97
2023-03-19T04:36:23.812Z,15.03
2023-03-19T04:38:50.558Z,14.63
2023-03-19T04:41:17.249Z,17.10
2023-03-19T04:43:45.249Z,14.37
2023-03-19T04:46:12.137Z,13.37
2023-03-19T04:48:38.972Z,14.33
2023-03-19T04:51:06.106Z,14.00
2023-03-19T04:53:32.760Z,11.97
2023-03-19T04:55:59.458Z,12.33
2023-03-19T04:58:26.090Z,12.50
2023-03-19T05:00:54.199Z,13.10
2023-03-19T05:03:21.189Z,13.47
2023-03-19T05:05:48.091Z,15.60
2023-03-19T05:08:14.827Z,14.73
2023-03-19T05:10:42.259Z,15.77
2023-03-19T05:13:09.188Z,15.67
2023-03-19T05:15:41.838Z,15.83
2023-03-19T05:18:10.513Z,16.83
2023-03-19T05:20:37.237Z,15.00
2023-03-19T05:23:04.478Z,15.33
2023-03-19T05:25:31.210Z,15.30
2023-03-19T05:27:57.979Z,13.60
2023-03-19T05:30:24.743Z,16.60
2023-03-19T05:32:51.536Z,15.17
2023-03-19T05:35:19.654Z,14.13
2023-03-19T05:37:46.454Z,15.87
2023-03-19T05:40:13.201Z,12.07
2023-03-19T05:42:40.024Z,15.70
2023-03-19T05:45:07.604Z,16.93
2023-03-19T05:47:34.293Z,15.27
2023-03-19T05:50:01.350Z,17.23
2023-03-19T05:52:30.079Z,17.70
2023-03-19T05:54:56.792Z,17.13
2023-03-19T05:57:23.611Z,15.17
2023-03-19T05:59:50.504Z,16.30
2023-03-19T06:02:17.324Z,16.60
2023-03-19T06:04:44.248Z,16.50
2023-03-19T06:07:11.206Z,16.27
2023-03-19T06:09:39.587Z,18.60
2023-03-19T06:12:06.887Z,16.60
2023-03-19T06:14:33.621Z,16.80
2023-03-19T06:17:00.379Z,16.07
2023-03-19T06:19:27.173Z,16.57
2023-03-19T06:21:53.955Z,16.90
2023-03-19T06:24:20.719Z,15.67
2023-03-19T06:26:48.737Z,16.20
2023-03-19T06:29:15.558Z,16.37
2023-03-19T06:31:42.345Z,17.13
2023-03-19T06:34:09.354Z,17.00
2023-03-19T06:36:38.099Z,16.37
2023-03-19T06:39:07.104Z,17.50
2023-03-19T06:41:33.911Z,16.70
2023-03-19T06:44:02.085Z,15.50
2023-03-19T06:46:29.440Z,14.93
2023-03-19T06:48:56.448Z,15.70
2023-03-19T06:51:23.243Z,14.57
2023-03-19T06:53:50.468Z,17.00
2023-03-19T06:56:17.151Z,17.33
2023-03-19T06:58:43.865Z,16.27
2023-03-19T07:01:12.032Z,17.30
2023-03-19T07:03:38.739Z,18.83
2023-03-19T07:06:05.779Z,17.20
2023-03-19T07:08:38.842Z,15.80
2023-03-19T07:11:07.334Z,16.97
2023-03-19T07:13:34.429Z,15.77
2023-03-19T07:16:01.370Z,17.30
2023-03-19T07:18:29.601Z,16.97
2023-03-19T07:20:56.572Z,16.37
2023-03-19T07:23:26.079Z,16.60
2023-03-19T07:25:52.877Z,14.07
2023-03-19T07:28:19.610Z,14.83
2023-03-19T07:30:46.283Z,15.90
2023-03-19T07:33:13.119Z,17.67
2023-03-19T07:35:43.799Z,15.40
2023-03-19T07:38:10.822Z,16.40
2023-03-19T07:40:54.785Z,14.70
2023-03-19T07:43:26.073Z,16.90
2023-03-19T07:45:53.327Z,15.83
2023-03-19T07:48:20.082Z,16.80
2023-03-19T07:50:50.480Z,18.10
2023-03-19T07:53:17.260Z,17.40
2023-03-19T07:56:01.769Z,16.00
2023-03-19T07:59:22.737Z,17.53
2023-03-19T08:01:49.452Z,16.20
2023-03-19T08:04:16.179Z,17.80
2023-03-19T08:06:44.490Z,15.00
2023-03-19T08:09:11.229Z,16.37
2023-03-19T08:11:37.961Z,17.67
2023-03-19T08:14:04.687Z,15.00
2023-03-19T08:16:31.471Z,17.30
2023-03-19T08:18:58.151Z,17.80
2023-03-19T08:21:24.843Z,15.60
2023-03-19T08:23:53.388Z,17.00
2023-03-19T08:26:20.151Z,18.23
2023-03-19T08:28:46.894Z,16.50
2023-03-19T08:31:14.581Z,20.30
2023-03-19T08:33:41.582Z,15.00
2023-03-19T08:36:09.835Z,14.93
2023-03-19T08:38:36.733Z,15.67
2023-03-19T08:41:06.130Z,15.07
2023-03-19T08:43:34.344Z,15.60
2023-03-19T08:46:01.226Z,15.03
2023-03-19T08:48:28.140Z,15.97
2023-03-19T08:50:55.868Z,16.23
2023-03-19T08:53:22.749Z,14.70
2023-03-19T08:55:53.042Z,15.67
2023-03-19T08:58:21.362Z,14.93
2023-03-19T09:00:48.258Z,14.80
2023-03-19T09:03:15.912Z,14.13
2023-03-19T09:05:42.976Z,15.13
2023-03-19T09:08:09.899Z,16.60
2023-03-19T09:10:36.830Z,14.50
2023-03-19T09:13:03.946Z,13.57
2023-03-19T09:15:32.558Z,14.97
2023-03-19T09:17:59.475Z,14.83
2023-03-19T09:20:38.391Z,14.20
2023-03-19T09:23:05.063Z,13.57
2023-03-19T09:25:35.365Z,14.40
2023-03-19T09:28:02.342Z,15.90
2023-03-19T09:30:29.305Z,15.50
2023-03-19T09:32:57.445Z,14.90
2023-03-19T09:35:24.210Z,14.93
2023-03-19T09:37:52.071Z,14.10
2023-03-19T09:40:24.739Z,15.77
2023-03-19T09:43:02.806Z,14.90
2023-03-19T09:45:29.599Z,13.43
2023-03-19T09:48:02.676Z,14.20
2023-03-19T09:50:29.944Z,13.00
2023-03-19T09:53:01.673Z,12.10
2023-03-19T09:55:35.875Z,14.50
2023-03-19T09:58:15.487Z,13.17
2023-03-19T10:00:44.242Z,12.57
2023-03-19T10:03:37.491Z,12.40
2023-03-19T10:06:26.481Z,14.50
2023-03-19T10:09:24.525Z,13.67
2023-03-19T10:12:02.344Z,13.53
2023-03-19T10:14:47.964Z,12.00
2023-03-19T10:17:18.799Z,14.00
2023-03-19T10:19:50.157Z,12.90
2023-03-19T10:22:21.143Z,13.37
2023-03-19T10:24:50.346Z,14.13
2023-03-19T10:27:19.433Z,14.20
2023-03-19T10:29:46.120Z,12.47
2023-03-19T10:32:18.273Z,13.30
2023-03-19T10:34:47.683Z,12.30
2023-03-19T10:37:16.619Z,12.17
2023-03-19T10:39:44.784Z,12.23
2023-03-19T10:42:33.213Z,13.17
2023-03-19T10:45:04.087Z,11.53
2023-03-19T10:47:38.068Z,12.60
2023-03-19T10:50:07.167Z,13.00
2023-03-19T10:52:36.443Z,11.43
2023-03-19T10:55:07.271Z,10.90
2023-03-19T10:57:35.026Z,10.97
2023-03-19T11:00:05.484Z,10.80
2023-03-19T11:02:32.377Z,11.70
2023-03-19T11:05:23.697Z,12.07
2023-03-19T11:07:51.448Z,10.90
2023-03-19T11:10:20.208Z,11.60
2023-03-19T11:12:52.238Z,10.53
2023-03-19T11:15:21.884Z,10.67
2023-03-19T11:17:50.172Z,9.87
2023-03-19T11:20:26.647Z,11.57
2023-03-19T11:22:56.227Z,12.37
2023-03-19T11:25:26.896Z,11.13
2023-03-19T11:28:01.248Z,12.43
2023-03-19T11:30:36.683Z,11.73
2023-03-19T11:33:14.031Z,12.30
2023-03-19T11:35:47.047Z,11.77
2023-03-19T11:38:23.370Z,12.63
2023-03-19T11:40:56.960Z,11.30
2023-03-19T11:43:50.161Z,11.63
2023-03-19T11:46:32.351Z,11.07
2023-03-19T11:49:27.443Z,12.63
2023-03-19T11:52:04.056Z,11.03
2023-03-19T11:54:42.092Z,12.07
2023-03-19T11:57:12.238Z,12.23
2023-03-19T12:00:17.755Z,11.13
2023-03-19T12:03:21.156Z,13.60
2023-03-19T12:05:55.909Z,11.70
2023-03-19T12:08:33.573Z,12.23
2023-03-19T12:11:14.000Z,11.70
2023-03-19T12:14:10.695Z,11.27
2023-03-19T12:16:51.872Z,10.23
2023-03-19T12:19:32.667Z,10.13
2023-03-19T12:22:09.248Z,11.87
2023-03-19T12:25:03.371Z,9.33
2023-03-19T12:27:37.220Z,9.47
2023-03-19T12:30:13.802Z,10.23
2023-03-19T12:32:56.965Z,10.10
2023-03-19T12:35:40.648Z,10.50
2023-03-19T12:38:17.392Z,11.83
2023-03-19T12:40:55.060Z,11.77
2023-03-19T12:43:29.282Z,10.20
2023-03-19T12:46:02.066Z,8.53
2023-03-19T12:48:32.975Z,8.70
2023-03-19T12:51:06.463Z,10.50
2023-03-19T12:53:40.536Z,10.33
2023-03-19T12:56:13.153Z,8.80
2023-03-19T12:58:52.573Z,8.07
2023-03-19T13:01:23.136Z,7.60
2023-03-19T13:04:03.393Z,6.80
2023-03-19T13:06:36.121Z,8.53
2023-03-19T13:09:16.638Z,8.53
2023-03-19T13:11:52.486Z,8.40
2023-03-19T13:14:25.400Z,8.10
2023-03-19T13:17:06.161Z,9.07
2023-03-19T13:19:58.805Z,7.70
2023-03-19T13:23:04.064Z,10.27
2023-03-19T13:25:37.749Z,8.73
2023-03-19T13:28:11.836Z,8.97
2023-03-19T13:30:58.140Z,10.10
2023-03-19T13:33:33.093Z,8.50
2023-03-19T13:36:15.891Z,9.70
2023-03-19T13:38:47.145Z,10.17
2023-03-19T13:41:57.231Z,10.37
2023-03-19T13:44:39.314Z,10.17
2023-03-19T13:47:40.389Z,10.70
2023-03-19T13:50:27.930Z,11.40
2023-03-19T13:53:12.566Z,9.73
2023-03-19T13:55:49.858Z,10.60
2023-03-19T13:58:20.679Z,8.97
2023-03-19T14:00:59.065Z,8.33
2023-03-19T14:03:28.310Z,8.70
2023-03-19T14:05:56.985Z,7.63
2023-03-19T14:08:26.571Z,10.10
2023-03-19T14:10:56.688Z,9.40
2023-03-19T14:13:31.103Z,8.03
2023-03-19T14:16:07.213Z,9.37
2023-03-19T14:18:40.621Z,9.43
2023-03-19T14:21:13.028Z,9.00
2023-03-19T14:23:44.150Z,10.50
2023-03-19T14:26:16.994Z,9.63
2023-03-19T14:28:52.789Z,9.07
2023-03-19T14:31:40.531Z,8.53
2023-03-19T14:34:24.473Z,9.47
2023-03-19T14:36:57.926Z,8.70
2023-03-19T14:39:26.215Z,9.37
2023-03-19T14:42:01.300Z,8.17
2023-03-19T14:45:04.385Z,9.87
2023-03-19T14:48:20.989Z,9.07
2023-03-19T14:51:12.642Z,10.20
2023-03-19T14:53:43.718Z,8.13
2023-03-19T14:56:14.353Z,9.10
2023-03-19T14:58:51.530Z,9.97
2023-03-19T15:01:19.095Z,9.83
2023-03-19T15:03:53.778Z,9.73
2023-03-19T15:06:20.642Z,9.37
2023-03-19T15:08:49.863Z,8.70
2023-03-19T15:11:43.113Z,7.00
2023-03-19T15:14:36.992Z,6.20
2023-03-19T15:17:09.313Z,6.80
2023-03-19T15:19:39.639Z,6.63
2023-03-19T15:22:12.496Z,7.10
2023-03-19T15:24:40.600Z,6.10
2023-03-19T15:27:18.556Z,6.60
2023-03-19T15:29:49.032Z,6.90
2023-03-19T15:32:52.075Z,5.97
2023-03-19T15:35:27.053Z,7.00
2023-03-19T15:37:58.338Z,7.03
2023-03-19T15:40:26.517Z,7.13
2023-03-19T15:42:53.950Z,7.47
2023-03-19T15:45:22.760Z,7.20
2023-03-19T15:47:54.441Z,7.30
2023-03-19T15:50:32.562Z,6.93
2023-03-19T15:53:03.308Z,6.83
2023-03-19T15:55:34.433Z,6.97
2023-03-19T15:58:10.697Z,7.90
2023-03-19T16:00:40.429Z,7.43
2023-03-19T16:03:17.266Z,7.10
2023-03-19T16:05:45.645Z,6.37
2023-03-19T16:08:26.760Z,4.27
2023-03-19T16:10:54.112Z,3.70
2023-03-19T16:13:31.061Z,3.10
2023-03-19T16:16:04.958Z,3.43
2023-03-19T16:18:41.835Z,2.87
2023-03-19T16:21:14.912Z,2.07
2023-03-19T16:23:44.809Z,2.83
2023-03-19T16:26:19.266Z,3.00
2023-03-19T16:28:54.996Z,2.93
2023-03-19T16:31:24.597Z,2.93
2023-03-19T16:33:52.115Z,2.83
2023-03-19T16:36:21.199Z,3.00
2023-03-19T16:38:58.035Z,2.90
2023-03-19T16:41:35.818Z,2.83
2023-03-19T16:44:13.292Z,3.50
2023-03-19T16:46:40.279Z,3.60
2023-03-19T16:49:07.063Z,2.50
2023-03-19T16:51:35.652Z,1.80
2023-03-19T16:54:02.866Z,3.07
2023-03-19T16:56:30.120Z,2.00
2023-03-19T16:58:56.903Z,1.80
2023-03-19T17:01:27.811Z,1.80
2023-03-19T17:03:54.498Z,1.40
2023-03-19T17:06:22.263Z,1.40
2023-03-19T17:08:50.371Z,1.73
2023-03-19T17:11:21.941Z,1.80
2023-03-19T17:13:48.909Z,2.40
2023-03-19T17:16:15.793Z,2.13
2023-03-19T17:22:06.762Z,1.73
2023-03-19T17:24:35.563Z,1.60
2023-03-19T17:27:03.877Z,1.87
2023-03-19T17:32:54.315Z,2.00
2023-03-19T17:35:52.850Z,2.30
2023-03-19T17:38:21.585Z,1.70
2023-03-19T17:40:49.716Z,2.70
2023-03-19T17:43:16.489Z,5.07
2023-03-19T17:45:45.576Z,4.50
2023-03-19T17:48:18.249Z,7.20
2023-03-19T17:50:45.171Z,7.00
2023-03-19T17:53:12.762Z,6.03
2023-03-19T17:55:39.641Z,5.03
2023-03-19T17:58:14.173Z,5.17
2023-03-19T18:00:40.911Z,3.70
2023-03-19T18:03:13.514Z,5.97
2023-03-19T18:05:40.812Z,4.80
2023-03-19T18:08:10.834Z,5.57
2023-03-19T18:10:38.254Z,6.03
2023-03-19T18:13:07.306Z,4.80
2023-03-19T18:15:37.063Z,5.13
2023-03-19T18:18:06.147Z,3.73
2023-03-19T18:20:36.064Z,4.30
2023-03-19T18:23:03.467Z,3.80
2023-03-19T18:25:30.439Z,3.97
2023-03-19T18:27:57.047Z,4.30
2023-03-19T18:30:23.853Z,7.10
2023-03-19T18:32:55.663Z,5.20
2023-03-19T18:35:25.996Z,5.10
2023-03-19T18:37:54.028Z,5.00
2023-03-19T18:40:22.437Z,4.63
2023-03-19T18:42:49.977Z,3.50
2023-03-19T18:45:17.902Z,4.20
2023-03-19T18:47:46.248Z,3.70
2023-03-19T18:50:20.079Z,3.93
2023-03-19T18:52:48.290Z,5.17
2023-03-19T18:55:15.526Z,5.03
2023-03-19T18:57:53.128Z,5.80
2023-03-19T19:00:24.233Z,5.77
2023-03-19T19:02:53.006Z,5.80
2023-03-19T19:05:23.104Z,5.37
2023-03-19T19:07:50.191Z,5.70
2023-03-19T19:10:17.908Z,6.00
2023-03-19T19:12:46.429Z,6.90
2023-03-19T19:15:21.661Z,6.10
2023-03-19T19:17:48.507Z,5.60
2023-03-19T19:20:16.645Z,6.60
2023-03-19T19:22:45.104Z,6.17
2023-03-19T19:25:16.784Z,5.80
2023-03-19T19:27:45.181Z,5.00
2023-03-19T19:30:16.419Z,6.63
2023-03-19T19:32:43.916Z,5.80
2023-03-19T19:35:16.073Z,5.27
2023-03-19T19:37:44.172Z,5.27
2023-03-19T19:40:13.629Z,5.10
2023-03-19T19:42:40.776Z,4.03
2023-03-19T19:45:22.057Z,5.00
2023-03-19T19:47:48.721Z,4.40
2023-03-19T19:50:16.347Z,4.97
2023-03-19T19:52:44.436Z,3.63
2023-03-19T19:55:11.148Z,3.33
2023-03-19T19:57:39.520Z,2.80
2023-03-19T20:00:14.977Z,2.80
2023-03-19T20:02:41.721Z,2.57
2023-03-19T20:05:16.736Z,2.83
2023-03-19T20:07:44.893Z,2.60
2023-03-19T20:10:12.093Z,2.70
2023-03-19T20:12:43.453Z,1.90
2023-03-19T20:15:15.772Z,1.73
2023-03-19T20:17:42.810Z,2.00
2023-03-19T20:20:17.793Z,2.13
2023-03-19T20:22:46.109Z,2.67
2023-03-19T20:25:13.804Z,2.17
2023-03-19T20:27:41.309Z,2.20
2023-03-19T20:30:20.325Z,2.70
2023-03-19T20:32:48.565Z,2.83
2023-03-19T20:35:17.945Z,2.60
2023-03-19T20:37:46.345Z,2.90
2023-03-19T20:40:13.998Z,3.40
2023-03-19T20:42:41.899Z,2.60
2023-03-19T20:45:15.542Z,3.00
2023-03-19T20:47:42.284Z,3.73
2023-03-19T20:50:16.957Z,2.53
2023-03-19T20:52:43.655Z,3.13
2023-03-19T20:55:16.077Z,2.27
2023-03-19T20:57:44.352Z,2.97
2023-03-19T21:00:18.883Z,3.70
2023-03-19T21:02:45.731Z,3.23
2023-03-19T21:05:13.294Z,3.30
2023-03-19T21:07:40.452Z,4.50
2023-03-19T21:10:21.692Z,3.13
2023-03-19T21:12:48.377Z,3.30
2023-03-19T21:15:15.768Z,3.33
2023-03-19T21:17:42.565Z,3.30
2023-03-19T21:20:16.315Z,3.30
2023-03-19T21:22:44.053Z,3.00
2023-03-19T21:25:18.760Z,2.80
2023-03-19T21:27:49.690Z,2.97
2023-03-19T21:30:17.949Z,3.00
2023-03-19T21:32:44.901Z,2.40
2023-03-19T21:35:16.265Z,2.50
2023-03-19T21:37:42.937Z,3.67
2023-03-19T21:40:14.019Z,3.70
2023-03-19T21:42:41.779Z,3.10
2023-03-19T21:45:17.076Z,2.50
2023-03-19T21:47:43.864Z,2.60
2023-03-19T21:50:15.246Z,3.00
2023-03-19T21:52:57.064Z,2.93
2023-03-19T21:55:25.437Z,2.70
2023-03-19T21:57:56.985Z,2.53
2023-03-19T22:00:25.266Z,2.50
2023-03-19T22:02:51.967Z,2.63
2023-03-19T22:05:24.620Z,2.70
2023-03-19T22:07:52.407Z,2.70
2023-03-19T22:10:20.534Z,2.70
2023-03-19T22:12:48.541Z,2.17
2023-03-19T22:15:31.057Z,2.50
2023-03-19T22:17:57.734Z,1.87
2023-03-19T22:20:25.404Z,2.07
2023-03-19T22:22:52.262Z,2.10
2023-03-19T22:25:19.780Z,2.03
2023-03-19T22:27:48.276Z,1.97
2023-03-19T22:30:30.206Z,1.77
2023-03-19T22:32:58.041Z,1.90
2023-03-19T22:35:25.447Z,2.73
2023-03-19T22:37:52.131Z,2.47
2023-03-19T22:40:19.660Z,2.13
2023-03-19T22:42:48.485Z,2.40
2023-03-19T22:45:23.337Z,2.10
2023-03-19T22:47:52.020Z,2.33
2023-03-19T22:50:22.099Z,2.50
2023-03-19T22:52:49.157Z,2.73
2023-03-19T22:55:16.358Z,2.00
2023-03-19T22:57:43.463Z,2.50
2023-03-19T23:00:18.273Z,2.83
2023-03-19T23:02:46.933Z,2.33
2023-03-19T23:05:29.630Z,2.70
2023-03-19T23:07:56.722Z,2.50
2023-03-19T23:10:26.199Z,2.27
2023-03-19T23:12:53.544Z,2.67
2023-03-19T23:15:20.599Z,3.20
2023-03-19T23:17:47.450Z,3.00
2023-03-19T23:20:16.501Z,2.67
2023-03-19T23:22:47.037Z,2.07
2023-03-19T23:25:15.214Z,2.60
2023-03-19T23:27:42.473Z,2.50
2023-03-19T23:30:21.972Z,2.70
2023-03-19T23:32:48.756Z,2.70
2023-03-19T23:35:17.392Z,2.50
2023-03-19T23:37:45.873Z,2.37
2023-03-19T23:40:13.731Z,3.20
2023-03-19T23:42:42.550Z,2.80
2023-03-19T23:45:20.805Z,2.20
2023-03-19T23:47:47.572Z,2.90
2023-03-19T23:50:14.535Z,2.47
2023-03-19T23:52:41.296Z,2.60
2023-03-19T23:55:10.421Z,1.83
2023-03-19T23:57:38.612Z,1.90
